sensor_id;sensor_type;location;lat;lon;timestamp;P1;durP1;ratioP1;P2;durP2;ratioP2
13580;SDS011;6861;46.170;7.222;2022-07-29T00:01:53;8.45;;;2.40;;
13580;SDS011;6861;46.170;7.222;2022-07-29T00:04:20;2.78;;;2.25;;
13580;SDS011;6861;46.170;7.222;2022-07-29T00:06:47;2.97;;;2.22;;
13580;SDS011;6861;46.170;7.222;2022-07-29T00:09:16;2.58;;;2.30;;
13580;SDS011;6861;46.170;7.222;2022-07-29T00:11:42;3.40;;;2.28;;
13580;SDS011;6861;46.170;7.222;2022-07-29T00:14:09;3.78;;;2.22;;
13580;SDS011;6861;46.170;7.222;2022-07-29T00:16:36;5.30;;;2.40;;
13580;SDS011;6861;46.170;7.222;2022-07-29T00:19:03;2.22;;;2.03;;
13580;SDS011;6861;46.170;7.222;2022-07-29T00:21:30;4.22;;;2.28;;
13580;SDS011;6861;46.170;7.222;2022-07-29T00:23:57;2.00;;;1.77;;
13580;SDS011;6861;46.170;7.222;2022-07-29T00:26:26;2.50;;;1.60;;
13580;SDS011;6861;46.170;7.222;2022-07-29T00:28:56;2.25;;;2.03;;
13580;SDS011;6861;46.170;7.222;2022-07-29T00:31:24;2.00;;;1.60;;
13580;SDS011;6861;46.170;7.222;2022-07-29T00:33:51;2.90;;;2.08;;
13580;SDS011;6861;46.170;7.222;2022-07-29T00:36:18;2.20;;;1.95;;
13580;SDS011;6861;46.170;7.222;2022-07-29T00:38:45;3.28;;;2.05;;
13580;SDS011;6861;46.170;7.222;2022-07-29T00:41:13;2.90;;;2.38;;
13580;SDS011;6861;46.170;7.222;2022-07-29T00:43:41;3.67;;;2.38;;
13580;SDS011;6861;46.170;7.222;2022-07-29T00:46:08;2.13;;;1.92;;
13580;SDS011;6861;46.170;7.222;2022-07-29T00:48:36;2.42;;;2.22;;
13580;SDS011;6861;46.170;7.222;2022-07-29T00:51:03;3.15;;;2.50;;
13580;SDS011;6861;46.170;7.222;2022-07-29T00:53:32;4.18;;;2.70;;
13580;SDS011;6861;46.170;7.222;2022-07-29T00:56:02;2.20;;;2.00;;
13580;SDS011;6861;46.170;7.222;2022-07-29T00:58:29;2.20;;;2.00;;
13580;SDS011;6861;46.170;7.222;2022-07-29T01:00:57;2.60;;;2.05;;
13580;SDS011;6861;46.170;7.222;2022-07-29T01:03:24;3.15;;;2.10;;
13580;SDS011;6861;46.170;7.222;2022-07-29T01:05:51;2.28;;;1.92;;
13580;SDS011;6861;46.170;7.222;2022-07-29T01:08:20;3.17;;;1.90;;
13580;SDS011;6861;46.170;7.222;2022-07-29T01:10:48;2.95;;;1.95;;
13580;SDS011;6861;46.170;7.222;2022-07-29T01:13:17;2.67;;;1.80;;
13580;SDS011;6861;46.170;7.222;2022-07-29T01:15:46;2.10;;;1.60;;
13580;SDS011;6861;46.170;7.222;2022-07-29T01:18:18;2.75;;;1.80;;
13580;SDS011;6861;46.170;7.222;2022-07-29T01:23:50;1.80;;;1.60;;
13580;SDS011;6861;46.170;7.222;2022-07-29T01:29:14;2.08;;;1.70;;
13580;SDS011;6861;46.170;7.222;2022-07-29T01:31:48;1.58;;;1.48;;
13580;SDS011;6861;46.170;7.222;2022-07-29T01:34:30;3.08;;;1.90;;
13580;SDS011;6861;46.170;7.222;2022-07-29T01:37:04;2.80;;;1.88;;
13580;SDS011;6861;46.170;7.222;2022-07-29T01:39:35;2.95;;;1.73;;
13580;SDS011;6861;46.170;7.222;2022-07-29T01:42:06;1.98;;;1.67;;
13580;SDS011;6861;46.170;7.222;2022-07-29T01:44:45;3.92;;;2.08;;
13580;SDS011;6861;46.170;7.222;2022-07-29T01:47:19;3.53;;;2.22;;
13580;SDS011;6861;46.170;7.222;2022-07-29T01:49:50;4.13;;;2.15;;
13580;SDS011;6861;46.170;7.222;2022-07-29T01:52:23;2.70;;;1.95;;
13580;SDS011;6861;46.170;7.222;2022-07-29T01:54:58;4.63;;;2.20;;
13580;SDS011;6861;46.170;7.222;2022-07-29T01:57:29;2.80;;;2.30;;
13580;SDS011;6861;46.170;7.222;2022-07-29T02:00:01;2.15;;;1.95;;
13580;SDS011;6861;46.170;7.222;2022-07-29T02:02:31;3.53;;;2.25;;
13580;SDS011;6861;46.170;7.222;2022-07-29T02:05:00;2.65;;;2.30;;
13580;SDS011;6861;46.170;7.222;2022-07-29T02:07:29;2.80;;;2.13;;
13580;SDS011;6861;46.170;7.222;2022-07-29T02:09:59;5.25;;;2.10;;
13580;SDS011;6861;46.170;7.222;2022-07-29T02:12:28;3.05;;;2.10;;
13580;SDS011;6861;46.170;7.222;2022-07-29T02:14:57;3.13;;;2.17;;
13580;SDS011;6861;46.170;7.222;2022-07-29T02:17:31;3.15;;;2.00;;
13580;SDS011;6861;46.170;7.222;2022-07-29T02:20:02;2.50;;;2.30;;
13580;SDS011;6861;46.170;7.222;2022-07-29T02:22:31;2.13;;;1.90;;
13580;SDS011;6861;46.170;7.222;2022-07-29T02:25:01;2.20;;;1.98;;
13580;SDS011;6861;46.170;7.222;2022-07-29T02:27:29;2.88;;;2.40;;
13580;SDS011;6861;46.170;7.222;2022-07-29T02:29:57;2.25;;;1.83;;
13580;SDS011;6861;46.170;7.222;2022-07-29T02:32:29;2.20;;;2.00;;
13580;SDS011;6861;46.170;7.222;2022-07-29T02:34:58;2.10;;;1.90;;
13580;SDS011;6861;46.170;7.222;2022-07-29T02:37:26;3.83;;;2.75;;
13580;SDS011;6861;46.170;7.222;2022-07-29T02:39:54;3.65;;;2.50;;
13580;SDS011;6861;46.170;7.222;2022-07-29T02:42:23;2.15;;;1.95;;
13580;SDS011;6861;46.170;7.222;2022-07-29T02:44:52;3.88;;;2.30;;
13580;SDS011;6861;46.170;7.222;2022-07-29T02:47:22;3.22;;;1.98;;
13580;SDS011;6861;46.170;7.222;2022-07-29T02:49:55;2.20;;;2.00;;
13580;SDS011;6861;46.170;7.222;2022-07-29T02:52:27;2.42;;;1.85;;
13580;SDS011;6861;46.170;7.222;2022-07-29T02:54:58;4.28;;;2.40;;
13580;SDS011;6861;46.170;7.222;2022-07-29T02:57:29;2.35;;;2.15;;
13580;SDS011;6861;46.170;7.222;2022-07-29T03:00:04;2.75;;;2.40;;
13580;SDS011;6861;46.170;7.222;2022-07-29T03:02:36;2.45;;;1.92;;
13580;SDS011;6861;46.170;7.222;2022-07-29T03:05:06;2.85;;;2.08;;
13580;SDS011;6861;46.170;7.222;2022-07-29T03:07:36;3.83;;;2.40;;
13580;SDS011;6861;46.170;7.222;2022-07-29T03:10:07;2.53;;;2.10;;
13580;SDS011;6861;46.170;7.222;2022-07-29T03:12:35;2.42;;;2.08;;
13580;SDS011;6861;46.170;7.222;2022-07-29T03:15:02;2.92;;;2.08;;
13580;SDS011;6861;46.170;7.222;2022-07-29T03:17:30;4.63;;;2.47;;
13580;SDS011;6861;46.170;7.222;2022-07-29T03:19:59;2.95;;;2.25;;
13580;SDS011;6861;46.170;7.222;2022-07-29T03:22:27;2.38;;;2.17;;
13580;SDS011;6861;46.170;7.222;2022-07-29T03:24:55;2.50;;;2.30;;
13580;SDS011;6861;46.170;7.222;2022-07-29T03:27:22;3.00;;;2.20;;
13580;SDS011;6861;46.170;7.222;2022-07-29T03:29:49;3.47;;;2.00;;
13580;SDS011;6861;46.170;7.222;2022-07-29T03:32:16;2.30;;;2.10;;
13580;SDS011;6861;46.170;7.222;2022-07-29T03:34:43;2.35;;;2.13;;
13580;SDS011;6861;46.170;7.222;2022-07-29T03:37:11;1.92;;;1.73;;
13580;SDS011;6861;46.170;7.222;2022-07-29T03:39:39;1.83;;;1.55;;
13580;SDS011;6861;46.170;7.222;2022-07-29T03:42:08;1.63;;;1.30;;
13580;SDS011;6861;46.170;7.222;2022-07-29T03:44:38;1.73;;;1.63;;
13580;SDS011;6861;46.170;7.222;2022-07-29T03:47:08;3.08;;;1.77;;
13580;SDS011;6861;46.170;7.222;2022-07-29T03:49:37;2.63;;;1.92;;
13580;SDS011;6861;46.170;7.222;2022-07-29T03:52:05;2.25;;;1.65;;
13580;SDS011;6861;46.170;7.222;2022-07-29T03:54:35;2.53;;;1.77;;
13580;SDS011;6861;46.170;7.222;2022-07-29T03:57:02;2.40;;;1.73;;
13580;SDS011;6861;46.170;7.222;2022-07-29T03:59:32;2.10;;;1.73;;
13580;SDS011;6861;46.170;7.222;2022-07-29T04:02:00;2.08;;;1.52;;
13580;SDS011;6861;46.170;7.222;2022-07-29T04:04:28;1.98;;;1.50;;
13580;SDS011;6861;46.170;7.222;2022-07-29T04:06:58;2.00;;;1.60;;
13580;SDS011;6861;46.170;7.222;2022-07-29T04:09:25;1.92;;;1.70;;
13580;SDS011;6861;46.170;7.222;2022-07-29T04:11:54;2.00;;;1.80;;
13580;SDS011;6861;46.170;7.222;2022-07-29T04:14:21;2.65;;;2.25;;
13580;SDS011;6861;46.170;7.222;2022-07-29T04:16:47;2.85;;;1.70;;
13580;SDS011;6861;46.170;7.222;2022-07-29T04:19:14;2.40;;;1.70;;
13580;SDS011;6861;46.170;7.222;2022-07-29T04:21:41;3.17;;;1.92;;
13580;SDS011;6861;46.170;7.222;2022-07-29T04:24:10;3.17;;;2.03;;
13580;SDS011;6861;46.170;7.222;2022-07-29T04:26:37;2.92;;;2.20;;
13580;SDS011;6861;46.170;7.222;2022-07-29T04:29:05;2.50;;;1.90;;
13580;SDS011;6861;46.170;7.222;2022-07-29T04:31:32;3.88;;;2.00;;
13580;SDS011;6861;46.170;7.222;2022-07-29T04:33:59;3.80;;;1.70;;
13580;SDS011;6861;46.170;7.222;2022-07-29T04:36:26;3.53;;;2.10;;
13580;SDS011;6861;46.170;7.222;2022-07-29T04:38:53;2.10;;;1.90;;
13580;SDS011;6861;46.170;7.222;2022-07-29T04:41:20;2.72;;;2.13;;
13580;SDS011;6861;46.170;7.222;2022-07-29T04:43:47;3.95;;;1.92;;
13580;SDS011;6861;46.170;7.222;2022-07-29T04:46:15;2.80;;;1.88;;
13580;SDS011;6861;46.170;7.222;2022-07-29T04:48:42;3.25;;;2.10;;
13580;SDS011;6861;46.170;7.222;2022-07-29T04:51:11;2.45;;;1.80;;
13580;SDS011;6861;46.170;7.222;2022-07-29T04:53:38;2.00;;;1.77;;
13580;SDS011;6861;46.170;7.222;2022-07-29T04:56:05;1.90;;;1.80;;
13580;SDS011;6861;46.170;7.222;2022-07-29T04:58:33;4.28;;;1.92;;
13580;SDS011;6861;46.170;7.222;2022-07-29T05:01:01;4.60;;;2.22;;
13580;SDS011;6861;46.170;7.222;2022-07-29T05:03:30;2.92;;;2.03;;
13580;SDS011;6861;46.170;7.222;2022-07-29T05:05:56;4.63;;;2.40;;
13580;SDS011;6861;46.170;7.222;2022-07-29T05:08:23;3.45;;;2.10;;
13580;SDS011;6861;46.170;7.222;2022-07-29T05:10:50;3.67;;;2.10;;
13580;SDS011;6861;46.170;7.222;2022-07-29T05:13:17;3.42;;;2.15;;
13580;SDS011;6861;46.170;7.222;2022-07-29T05:15:44;3.03;;;2.00;;
13580;SDS011;6861;46.170;7.222;2022-07-29T05:18:11;3.40;;;2.17;;
13580;SDS011;6861;46.170;7.222;2022-07-29T05:20:40;2.47;;;2.00;;
13580;SDS011;6861;46.170;7.222;2022-07-29T05:23:07;2.42;;;1.90;;
13580;SDS011;6861;46.170;7.222;2022-07-29T05:25:37;2.35;;;2.13;;
13580;SDS011;6861;46.170;7.222;2022-07-29T05:28:05;2.17;;;1.90;;
13580;SDS011;6861;46.170;7.222;2022-07-29T05:30:32;2.28;;;1.85;;
13580;SDS011;6861;46.170;7.222;2022-07-29T05:32:59;5.93;;;2.08;;
13580;SDS011;6861;46.170;7.222;2022-07-29T05:35:26;3.15;;;2.10;;
13580;SDS011;6861;46.170;7.222;2022-07-29T05:37:54;2.78;;;2.05;;
13580;SDS011;6861;46.170;7.222;2022-07-29T05:40:21;4.68;;;2.20;;
13580;SDS011;6861;46.170;7.222;2022-07-29T05:42:48;3.55;;;2.00;;
13580;SDS011;6861;46.170;7.222;2022-07-29T05:45:15;6.15;;;2.65;;
13580;SDS011;6861;46.170;7.222;2022-07-29T05:47:42;8.85;;;2.83;;
13580;SDS011;6861;46.170;7.222;2022-07-29T05:50:09;10.77;;;2.60;;
13580;SDS011;6861;46.170;7.222;2022-07-29T05:52:35;4.47;;;2.35;;
13580;SDS011;6861;46.170;7.222;2022-07-29T05:55:04;3.75;;;2.08;;
13580;SDS011;6861;46.170;7.222;2022-07-29T05:57:32;5.05;;;2.17;;
13580;SDS011;6861;46.170;7.222;2022-07-29T05:59:59;5.60;;;2.38;;
13580;SDS011;6861;46.170;7.222;2022-07-29T06:02:26;6.35;;;2.55;;
13580;SDS011;6861;46.170;7.222;2022-07-29T06:04:53;4.05;;;2.00;;
13580;SDS011;6861;46.170;7.222;2022-07-29T06:07:20;4.60;;;2.60;;
13580;SDS011;6861;46.170;7.222;2022-07-29T06:09:47;4.30;;;2.28;;
13580;SDS011;6861;46.170;7.222;2022-07-29T06:12:15;2.25;;;1.80;;
13580;SDS011;6861;46.170;7.222;2022-07-29T06:14:42;3.30;;;1.90;;
13580;SDS011;6861;46.170;7.222;2022-07-29T06:17:09;3.80;;;2.40;;
13580;SDS011;6861;46.170;7.222;2022-07-29T06:19:36;4.40;;;2.03;;
13580;SDS011;6861;46.170;7.222;2022-07-29T06:22:04;3.08;;;1.90;;
13580;SDS011;6861;46.170;7.222;2022-07-29T06:24:31;3.42;;;1.85;;
13580;SDS011;6861;46.170;7.222;2022-07-29T06:26:58;2.70;;;2.40;;
13580;SDS011;6861;46.170;7.222;2022-07-29T06:29:26;2.83;;;2.13;;
13580;SDS011;6861;46.170;7.222;2022-07-29T06:31:53;2.58;;;2.33;;
13580;SDS011;6861;46.170;7.222;2022-07-29T06:34:20;4.13;;;2.58;;
13580;SDS011;6861;46.170;7.222;2022-07-29T06:36:47;4.22;;;2.50;;
13580;SDS011;6861;46.170;7.222;2022-07-29T06:39:14;2.55;;;2.30;;
13580;SDS011;6861;46.170;7.222;2022-07-29T06:41:41;3.03;;;2.38;;
13580;SDS011;6861;46.170;7.222;2022-07-29T06:44:09;5.25;;;2.58;;
13580;SDS011;6861;46.170;7.222;2022-07-29T06:46:37;3.63;;;2.50;;
13580;SDS011;6861;46.170;7.222;2022-07-29T06:49:04;6.28;;;2.40;;
13580;SDS011;6861;46.170;7.222;2022-07-29T06:51:31;2.40;;;2.03;;
13580;SDS011;6861;46.170;7.222;2022-07-29T06:53:59;3.35;;;2.05;;
13580;SDS011;6861;46.170;7.222;2022-07-29T06:56:26;2.00;;;1.80;;
13580;SDS011;6861;46.170;7.222;2022-07-29T06:58:54;2.95;;;1.83;;
13580;SDS011;6861;46.170;7.222;2022-07-29T07:01:21;2.20;;;1.80;;
13580;SDS011;6861;46.170;7.222;2022-07-29T07:03:49;3.58;;;1.85;;
13580;SDS011;6861;46.170;7.222;2022-07-29T07:06:16;2.72;;;1.70;;
13580;SDS011;6861;46.170;7.222;2022-07-29T07:08:43;2.17;;;1.73;;
13580;SDS011;6861;46.170;7.222;2022-07-29T07:11:10;4.93;;;1.90;;
13580;SDS011;6861;46.170;7.222;2022-07-29T07:13:37;2.13;;;1.67;;
13580;SDS011;6861;46.170;7.222;2022-07-29T07:16:04;2.10;;;1.90;;
13580;SDS011;6861;46.170;7.222;2022-07-29T07:18:31;4.03;;;2.22;;
13580;SDS011;6861;46.170;7.222;2022-07-29T07:21:00;3.22;;;1.98;;
13580;SDS011;6861;46.170;7.222;2022-07-29T07:23:27;2.28;;;1.77;;
13580;SDS011;6861;46.170;7.222;2022-07-29T07:25:54;2.63;;;2.00;;
13580;SDS011;6861;46.170;7.222;2022-07-29T07:28:21;4.15;;;1.85;;
13580;SDS011;6861;46.170;7.222;2022-07-29T07:30:48;2.45;;;2.00;;
13580;SDS011;6861;46.170;7.222;2022-07-29T07:33:15;3.13;;;1.90;;
13580;SDS011;6861;46.170;7.222;2022-07-29T07:35:42;5.65;;;3.63;;
13580;SDS011;6861;46.170;7.222;2022-07-29T07:38:10;6.22;;;2.97;;
13580;SDS011;6861;46.170;7.222;2022-07-29T07:40:37;2.22;;;1.83;;
13580;SDS011;6861;46.170;7.222;2022-07-29T07:43:04;3.50;;;2.22;;
13580;SDS011;6861;46.170;7.222;2022-07-29T07:45:31;1.95;;;1.73;;
13580;SDS011;6861;46.170;7.222;2022-07-29T07:47:58;2.72;;;1.70;;
13580;SDS011;6861;46.170;7.222;2022-07-29T07:50:26;2.40;;;1.88;;
13580;SDS011;6861;46.170;7.222;2022-07-29T07:52:54;2.28;;;1.60;;
13580;SDS011;6861;46.170;7.222;2022-07-29T07:55:24;2.08;;;1.70;;
13580;SDS011;6861;46.170;7.222;2022-07-29T07:57:51;2.50;;;1.90;;
13580;SDS011;6861;46.170;7.222;2022-07-29T08:00:18;1.92;;;1.75;;
13580;SDS011;6861;46.170;7.222;2022-07-29T08:02:45;2.70;;;1.75;;
13580;SDS011;6861;46.170;7.222;2022-07-29T08:05:12;2.42;;;1.90;;
13580;SDS011;6861;46.170;7.222;2022-07-29T08:07:42;2.17;;;1.65;;
13580;SDS011;6861;46.170;7.222;2022-07-29T08:10:10;2.65;;;2.00;;
13580;SDS011;6861;46.170;7.222;2022-07-29T08:12:38;2.85;;;1.90;;
13580;SDS011;6861;46.170;7.222;2022-07-29T08:15:06;2.65;;;1.80;;
13580;SDS011;6861;46.170;7.222;2022-07-29T08:17:34;9.82;;;2.15;;
13580;SDS011;6861;46.170;7.222;2022-07-29T08:20:01;3.60;;;2.20;;
13580;SDS011;6861;46.170;7.222;2022-07-29T08:22:28;4.55;;;2.00;;
13580;SDS011;6861;46.170;7.222;2022-07-29T08:24:55;2.17;;;1.75;;
13580;SDS011;6861;46.170;7.222;2022-07-29T08:27:22;4.78;;;1.90;;
13580;SDS011;6861;46.170;7.222;2022-07-29T08:29:52;3.92;;;2.00;;
13580;SDS011;6861;46.170;7.222;2022-07-29T08:32:20;4.72;;;2.00;;
13580;SDS011;6861;46.170;7.222;2022-07-29T08:34:47;2.10;;;1.67;;
13580;SDS011;6861;46.170;7.222;2022-07-29T08:37:14;3.60;;;1.65;;
13580;SDS011;6861;46.170;7.222;2022-07-29T08:39:41;3.33;;;1.90;;
13580;SDS011;6861;46.170;7.222;2022-07-29T08:42:08;3.25;;;1.73;;
13580;SDS011;6861;46.170;7.222;2022-07-29T08:44:37;2.40;;;1.90;;
13580;SDS011;6861;46.170;7.222;2022-07-29T08:47:06;4.53;;;2.08;;
13580;SDS011;6861;46.170;7.222;2022-07-29T08:49:33;2.28;;;1.90;;
13580;SDS011;6861;46.170;7.222;2022-07-29T08:52:01;3.05;;;1.90;;
13580;SDS011;6861;46.170;7.222;2022-07-29T08:54:28;5.22;;;1.98;;
13580;SDS011;6861;46.170;7.222;2022-07-29T08:56:56;2.30;;;1.75;;
13580;SDS011;6861;46.170;7.222;2022-07-29T08:59:24;5.53;;;2.20;;
13580;SDS011;6861;46.170;7.222;2022-07-29T09:01:53;3.85;;;2.20;;
13580;SDS011;6861;46.170;7.222;2022-07-29T09:04:26;2.88;;;1.98;;
13580;SDS011;6861;46.170;7.222;2022-07-29T09:06:57;3.47;;;2.05;;
13580;SDS011;6861;46.170;7.222;2022-07-29T09:09:27;2.40;;;1.98;;
13580;SDS011;6861;46.170;7.222;2022-07-29T09:11:54;3.65;;;1.90;;
13580;SDS011;6861;46.170;7.222;2022-07-29T09:14:21;2.47;;;1.80;;
13580;SDS011;6861;46.170;7.222;2022-07-29T09:16:48;4.18;;;2.17;;
13580;SDS011;6861;46.170;7.222;2022-07-29T09:19:21;3.30;;;2.20;;
13580;SDS011;6861;46.170;7.222;2022-07-29T09:21:57;3.78;;;2.47;;
13580;SDS011;6861;46.170;7.222;2022-07-29T09:24:39;2.55;;;2.17;;
13580;SDS011;6861;46.170;7.222;2022-07-29T09:27:08;3.13;;;2.17;;
13580;SDS011;6861;46.170;7.222;2022-07-29T09:29:47;2.65;;;2.10;;
13580;SDS011;6861;46.170;7.222;2022-07-29T09:32:22;4.55;;;2.13;;
13580;SDS011;6861;46.170;7.222;2022-07-29T09:34:50;2.50;;;2.20;;
13580;SDS011;6861;46.170;7.222;2022-07-29T09:37:25;2.28;;;2.08;;
13580;SDS011;6861;46.170;7.222;2022-07-29T09:39:52;2.30;;;2.10;;
13580;SDS011;6861;46.170;7.222;2022-07-29T09:42:27;3.20;;;2.17;;
13580;SDS011;6861;46.170;7.222;2022-07-29T09:44:57;3.28;;;2.30;;
13580;SDS011;6861;46.170;7.222;2022-07-29T09:47:25;4.30;;;2.42;;
13580;SDS011;6861;46.170;7.222;2022-07-29T09:50:09;4.47;;;2.30;;
13580;SDS011;6861;46.170;7.222;2022-07-29T09:52:44;2.55;;;2.05;;
13580;SDS011;6861;46.170;7.222;2022-07-29T09:55:12;2.58;;;2.10;;
13580;SDS011;6861;46.170;7.222;2022-07-29T09:57:39;3.92;;;2.38;;
13580;SDS011;6861;46.170;7.222;2022-07-29T10:00:08;3.65;;;2.30;;
13580;SDS011;6861;46.170;7.222;2022-07-29T10:02:37;2.10;;;1.90;;
13580;SDS011;6861;46.170;7.222;2022-07-29T10:05:06;4.03;;;1.88;;
13580;SDS011;6861;46.170;7.222;2022-07-29T10:07:45;2.58;;;1.70;;
13580;SDS011;6861;46.170;7.222;2022-07-29T10:10:18;2.85;;;2.03;;
13580;SDS011;6861;46.170;7.222;2022-07-29T10:12:50;2.15;;;1.80;;
13580;SDS011;6861;46.170;7.222;2022-07-29T10:15:19;2.55;;;1.50;;
13580;SDS011;6861;46.170;7.222;2022-07-29T10:17:48;4.22;;;1.80;;
13580;SDS011;6861;46.170;7.222;2022-07-29T10:20:18;2.42;;;1.88;;
13580;SDS011;6861;46.170;7.222;2022-07-29T10:22:46;3.25;;;1.92;;
13580;SDS011;6861;46.170;7.222;2022-07-29T10:25:14;3.50;;;2.15;;
13580;SDS011;6861;46.170;7.222;2022-07-29T10:27:42;3.28;;;1.90;;
13580;SDS011;6861;46.170;7.222;2022-07-29T10:30:09;3.53;;;2.03;;
13580;SDS011;6861;46.170;7.222;2022-07-29T10:35:47;2.13;;;1.92;;
13580;SDS011;6861;46.170;7.222;2022-07-29T10:38:36;3.45;;;1.88;;
13580;SDS011;6861;46.170;7.222;2022-07-29T10:41:19;2.08;;;1.55;;
13580;SDS011;6861;46.170;7.222;2022-07-29T10:44:05;2.67;;;1.67;;
13580;SDS011;6861;46.170;7.222;2022-07-29T10:46:35;1.75;;;1.60;;
13580;SDS011;6861;46.170;7.222;2022-07-29T10:49:07;1.77;;;1.65;;
13580;SDS011;6861;46.170;7.222;2022-07-29T10:57:24;2.38;;;1.33;;
13580;SDS011;6861;46.170;7.222;2022-07-29T11:03:00;1.50;;;1.30;;
13580;SDS011;6861;46.170;7.222;2022-07-29T11:05:27;1.98;;;1.00;;
13580;SDS011;6861;46.170;7.222;2022-07-29T11:10:51;1.10;;;1.00;;
13580;SDS011;6861;46.170;7.222;2022-07-29T11:16:12;0.80;;;0.80;;
13580;SDS011;6861;46.170;7.222;2022-07-29T11:21:41;1.13;;;0.98;;
13580;SDS011;6861;46.170;7.222;2022-07-29T11:24:13;1.80;;;1.10;;
13580;SDS011;6861;46.170;7.222;2022-07-29T11:26:40;1.42;;;1.20;;
13580;SDS011;6861;46.170;7.222;2022-07-29T11:29:16;2.10;;;1.30;;
13580;SDS011;6861;46.170;7.222;2022-07-29T11:31:46;1.02;;;0.90;;
13580;SDS011;6861;46.170;7.222;2022-07-29T11:34:20;1.23;;;1.10;;
13580;SDS011;6861;46.170;7.222;2022-07-29T11:39:44;3.38;;;1.33;;
13580;SDS011;6861;46.170;7.222;2022-07-29T11:45:05;1.63;;;1.27;;
13580;SDS011;6861;46.170;7.222;2022-07-29T11:47:35;2.90;;;1.38;;
13580;SDS011;6861;46.170;7.222;2022-07-29T11:50:04;2.25;;;1.70;;
13580;SDS011;6861;46.170;7.222;2022-07-29T11:52:32;1.55;;;1.45;;
13580;SDS011;6861;46.170;7.222;2022-07-29T11:55:04;1.95;;;1.60;;
13580;SDS011;6861;46.170;7.222;2022-07-29T11:57:35;5.03;;;1.80;;
13580;SDS011;6861;46.170;7.222;2022-07-29T12:00:03;1.83;;;1.60;;
13580;SDS011;6861;46.170;7.222;2022-07-29T12:02:38;2.35;;;1.67;;
13580;SDS011;6861;46.170;7.222;2022-07-29T12:05:07;1.85;;;1.55;;
13580;SDS011;6861;46.170;7.222;2022-07-29T12:07:35;2.72;;;1.58;;
13580;SDS011;6861;46.170;7.222;2022-07-29T12:10:05;3.38;;;1.58;;
13580;SDS011;6861;46.170;7.222;2022-07-29T12:12:32;2.40;;;1.40;;
13580;SDS011;6861;46.170;7.222;2022-07-29T12:15:10;3.75;;;1.48;;
13580;SDS011;6861;46.170;7.222;2022-07-29T12:17:38;4.22;;;1.40;;
13580;SDS011;6861;46.170;7.222;2022-07-29T12:20:06;2.35;;;1.40;;
13580;SDS011;6861;46.170;7.222;2022-07-29T12:22:34;1.77;;;1.25;;
13580;SDS011;6861;46.170;7.222;2022-07-29T12:25:06;2.60;;;1.23;;
13580;SDS011;6861;46.170;7.222;2022-07-29T12:27:34;1.60;;;1.25;;
13580;SDS011;6861;46.170;7.222;2022-07-29T12:30:03;1.52;;;1.20;;
13580;SDS011;6861;46.170;7.222;2022-07-29T12:32:32;1.88;;;1.40;;
13580;SDS011;6861;46.170;7.222;2022-07-29T12:35:02;1.20;;;1.10;;
13580;SDS011;6861;46.170;7.222;2022-07-29T12:37:30;1.45;;;1.20;;
13580;SDS011;6861;46.170;7.222;2022-07-29T12:39:59;1.90;;;1.25;;
13580;SDS011;6861;46.170;7.222;2022-07-29T12:42:27;1.15;;;1.05;;
13580;SDS011;6861;46.170;7.222;2022-07-29T12:44:54;1.75;;;1.30;;
13580;SDS011;6861;46.170;7.222;2022-07-29T12:47:21;2.60;;;1.40;;
13580;SDS011;6861;46.170;7.222;2022-07-29T12:49:49;1.65;;;1.40;;
13580;SDS011;6861;46.170;7.222;2022-07-29T12:52:23;2.15;;;1.48;;
13580;SDS011;6861;46.170;7.222;2022-07-29T12:54:50;2.10;;;1.48;;
13580;SDS011;6861;46.170;7.222;2022-07-29T12:57:17;1.48;;;1.20;;
13580;SDS011;6861;46.170;7.222;2022-07-29T12:59:46;1.35;;;1.25;;
13580;SDS011;6861;46.170;7.222;2022-07-29T13:02:25;3.17;;;1.58;;
13580;SDS011;6861;46.170;7.222;2022-07-29T13:04:55;1.55;;;1.45;;
13580;SDS011;6861;46.170;7.222;2022-07-29T13:07:24;3.40;;;1.75;;
13580;SDS011;6861;46.170;7.222;2022-07-29T13:09:52;2.42;;;1.70;;
13580;SDS011;6861;46.170;7.222;2022-07-29T13:12:20;2.17;;;1.73;;
13580;SDS011;6861;46.170;7.222;2022-07-29T13:14:49;2.60;;;1.60;;
13580;SDS011;6861;46.170;7.222;2022-07-29T13:17:17;2.65;;;1.83;;
13580;SDS011;6861;46.170;7.222;2022-07-29T13:19:48;2.22;;;1.70;;
13580;SDS011;6861;46.170;7.222;2022-07-29T13:22:17;2.03;;;1.75;;
13580;SDS011;6861;46.170;7.222;2022-07-29T13:24:45;2.40;;;2.10;;
13580;SDS011;6861;46.170;7.222;2022-07-29T13:27:14;2.58;;;1.90;;
13580;SDS011;6861;46.170;7.222;2022-07-29T13:29:41;2.30;;;1.90;;
13580;SDS011;6861;46.170;7.222;2022-07-29T13:32:10;2.53;;;2.33;;
13580;SDS011;6861;46.170;7.222;2022-07-29T13:34:38;5.35;;;2.40;;
13580;SDS011;6861;46.170;7.222;2022-07-29T13:37:05;3.40;;;2.33;;
13580;SDS011;6861;46.170;7.222;2022-07-29T13:39:32;2.88;;;2.22;;
13580;SDS011;6861;46.170;7.222;2022-07-29T13:41:59;6.75;;;2.40;;
13580;SDS011;6861;46.170;7.222;2022-07-29T13:44:26;3.30;;;2.25;;
13580;SDS011;6861;46.170;7.222;2022-07-29T13:46:53;2.75;;;2.20;;
13580;SDS011;6861;46.170;7.222;2022-07-29T13:49:22;3.10;;;2.65;;
13580;SDS011;6861;46.170;7.222;2022-07-29T13:51:49;3.38;;;2.40;;
13580;SDS011;6861;46.170;7.222;2022-07-29T13:54:16;6.68;;;2.50;;
13580;SDS011;6861;46.170;7.222;2022-07-29T13:56:43;4.65;;;2.47;;
13580;SDS011;6861;46.170;7.222;2022-07-29T13:59:10;3.72;;;2.70;;
13580;SDS011;6861;46.170;7.222;2022-07-29T14:01:37;6.18;;;2.80;;
13580;SDS011;6861;46.170;7.222;2022-07-29T14:04:06;3.15;;;2.85;;
13580;SDS011;6861;46.170;7.222;2022-07-29T14:06:35;4.13;;;2.60;;
13580;SDS011;6861;46.170;7.222;2022-07-29T14:09:03;3.53;;;2.85;;
13580;SDS011;6861;46.170;7.222;2022-07-29T14:11:33;3.10;;;2.80;;
13580;SDS011;6861;46.170;7.222;2022-07-29T14:14:01;4.20;;;2.85;;
13580;SDS011;6861;46.170;7.222;2022-07-29T14:16:28;5.22;;;2.90;;
13580;SDS011;6861;46.170;7.222;2022-07-29T14:18:55;4.00;;;2.63;;
13580;SDS011;6861;46.170;7.222;2022-07-29T14:21:22;3.67;;;2.70;;
13580;SDS011;6861;46.170;7.222;2022-07-29T14:23:51;3.28;;;2.58;;
13580;SDS011;6861;46.170;7.222;2022-07-29T14:26:19;3.30;;;2.90;;
13580;SDS011;6861;46.170;7.222;2022-07-29T14:28:46;3.80;;;2.90;;
13580;SDS011;6861;46.170;7.222;2022-07-29T14:31:13;3.55;;;2.30;;
13580;SDS011;6861;46.170;7.222;2022-07-29T14:33:41;3.08;;;2.70;;
13580;SDS011;6861;46.170;7.222;2022-07-29T14:36:08;6.18;;;2.78;;
13580;SDS011;6861;46.170;7.222;2022-07-29T14:38:35;3.90;;;2.90;;
13580;SDS011;6861;46.170;7.222;2022-07-29T14:41:05;4.35;;;3.20;;
13580;SDS011;6861;46.170;7.222;2022-07-29T14:43:32;4.18;;;2.90;;
13580;SDS011;6861;46.170;7.222;2022-07-29T14:45:59;2.92;;;2.63;;
13580;SDS011;6861;46.170;7.222;2022-07-29T14:48:26;3.88;;;2.72;;
13580;SDS011;6861;46.170;7.222;2022-07-29T14:50:53;2.92;;;2.50;;
13580;SDS011;6861;46.170;7.222;2022-07-29T14:53:21;4.38;;;2.70;;
13580;SDS011;6861;46.170;7.222;2022-07-29T14:55:48;4.15;;;2.70;;
13580;SDS011;6861;46.170;7.222;2022-07-29T14:58:16;4.43;;;2.67;;
13580;SDS011;6861;46.170;7.222;2022-07-29T15:00:44;4.60;;;3.10;;
13580;SDS011;6861;46.170;7.222;2022-07-29T15:03:11;3.45;;;2.80;;
13580;SDS011;6861;46.170;7.222;2022-07-29T15:05:38;3.88;;;2.88;;
13580;SDS011;6861;46.170;7.222;2022-07-29T15:08:05;3.08;;;2.78;;
13580;SDS011;6861;46.170;7.222;2022-07-29T15:10:33;3.38;;;2.58;;
13580;SDS011;6861;46.170;7.222;2022-07-29T15:13:00;4.90;;;2.80;;
13580;SDS011;6861;46.170;7.222;2022-07-29T15:15:29;3.13;;;2.40;;
13580;SDS011;6861;46.170;7.222;2022-07-29T15:17:56;2.55;;;2.35;;
13580;SDS011;6861;46.170;7.222;2022-07-29T15:20:22;3.75;;;2.13;;
13580;SDS011;6861;46.170;7.222;2022-07-29T15:22:52;3.50;;;2.15;;
13580;SDS011;6861;46.170;7.222;2022-07-29T15:25:20;4.15;;;2.72;;
13580;SDS011;6861;46.170;7.222;2022-07-29T15:27:47;3.10;;;2.85;;
13580;SDS011;6861;46.170;7.222;2022-07-29T15:30:14;2.78;;;2.45;;
13580;SDS011;6861;46.170;7.222;2022-07-29T15:32:43;2.40;;;2.20;;
13580;SDS011;6861;46.170;7.222;2022-07-29T15:35:10;3.70;;;2.58;;
13580;SDS011;6861;46.170;7.222;2022-07-29T15:37:37;3.38;;;2.25;;
13580;SDS011;6861;46.170;7.222;2022-07-29T15:40:05;3.17;;;2.20;;
13580;SDS011;6861;46.170;7.222;2022-07-29T15:42:33;2.47;;;2.28;;